Historyczne dane pomiarowe

Dodano dane terminowe – wersja testowa.

Dane z okresu 1951-2019

Wersja bazy: 1.34 [2019-03-16, lista zmian], aktualizacja planowana na 2019-04-15

Dane meteo z obszaru Polski uzyskane na podstawie danych udostępnionych przez Instytut Meteorologii i Gospodarki Wodnej – Państwowy Instytut Badawczy.

 

Wybierz Datę:    

       

TemperaturaWilgotnośćWiatrCiśnienieOpadyŚniegCzas trwania zjawisk
 Stacja t tx tn tng RH VA  wxwx mslp ppp RRR   cm mm wxwxwxwxwxwxwx
1991-03-15 7.1 16.2 0.8 -3.7 75.5- 1.0 1.3---- 1.1------------
1991-03-14 6.0 13.3 -1.0 -3.9 83.8- 3.0 0.3---- 0.0------------
1991-03-13 4.9 8.7 1.7 -2.7 91.0- 8.0 1.0---- 0.0------------
1991-03-12 4.4 9.6 1.1 -2.0 93.3- 5.3 1.3---- 0.0------------
1991-03-11 2.8 4.9 0.9 0.0 90.8- 8.0 1.7---- 0.1------------
1991-03-10 2.2 2.9 1.7 0.7 85.8- 8.0 4.0---- 0.0------------
1991-03-09 2.7 5.7 0.8 -0.9 78.5- 7.7 5.0---- 0.0------------
1991-03-08 1.0 3.7 -1.6 -3.0 73.3- 8.0 3.7---- 0.0------------
1991-03-07 1.3 5.0 -1.1 -3.4 71.5- 0.7 5.3---- 0.0------------
1991-03-06 -0.7 1.8 -5.4 -8.4 84.5- 7.7 2.7---- 0.0------------
1991-03-05 -0.3 4.8 -2.9 -6.9 93.5- 5.3 1.0---- 0.0------------
1991-03-04 2.4 8.0 -0.8 -5.4 84.3- 5.0 2.3---- 0.0-- 3---------
1991-03-03 0.6 4.3 -2.7 -6.3 72.8- 2.7 3.3---- 0.0-- 4---------
1991-03-02 0.6 1.6 -0.4 -2.6 73.8- 5.3 3.3---- 0.0-- 4---------
1991-03-01 0.4 2.3 -0.8 -3.9 85.8- 7.3 2.3---- 0.0-- 4---------
1991-02-28 -0.2 1.0 -1.1 -4.4 92.5- 8.0 1.3---- 0.2-- 4---------
1991-02-27 0.6 2.1 -0.1 -1.0 82.0- 8.0 2.7---- 0.7-- 4---------
1991-02-26 2.6 5.0 1.2 -2.0 88.3- 7.7 2.7---- 0.3-- 6---------
1991-02-25 4.4 9.4 1.4 -3.3 87.3- 5.0 2.0---- 0.4-- 10---------
1991-02-24 3.6 7.1 2.1 -1.5 94.0- 5.7 1.3---- 0.1-- 13---------
1991-02-23 1.3 4.4 -2.9 -9.4 85.0- 7.0 3.0---- 1.1-- 17---------
1991-02-22 -2.1 5.0 -6.7-13.9 81.0- 6.3 0.7---- 0.0-- 18---------
1991-02-21 -2.2 3.5 -5.5-14.5 81.3- 3.3 1.3---- 0.0-- 19---------
1991-02-20 -1.9 3.5 -6.2-13.4 76.8- 3.3 1.3---- 0.0-- 20---------
1991-02-19 -5.7 0.9-12.3-21.9 77.3- 5.7 2.0---- 0.0-- 20---------
1991-02-18 -1.2 0.5 -3.6-13.4 70.8- 2.7 3.7---- 0.0-- 22---------
1991-02-17 -3.3 -1.0 -6.0-10.5 80.5- 7.0 3.0---- 1.4-- 21---------
1991-02-16 -5.2 -2.0 -7.8-12.1 71.0- 7.7 1.3---- 0.5-- 22---------
1991-02-15 -5.5 -3.3 -7.3-14.4 79.8- 5.7 2.3---- 0.2-- 23---------
1991-02-14 -4.4 -3.0 -5.3 -5.9 84.5- 8.0 3.7---- 3.4-- 21---------
1991-02-13 -4.0 -3.0 -4.7 -5.9 89.0- 8.0 3.0---- 9.3-- 13---------
1991-02-12 -4.8 -1.0-10.8-17.9 76.5- 5.0 0.3---- 3.8-- 11---------
1991-02-11 1.0 3.1 -1.0 -1.5 86.5- 8.0 2.0---- 1.6-- 11---------
1991-02-10 -0.4 3.0 -3.3 -5.4 80.0- 5.0 2.0---- 3.5-- 14---------
1991-02-09 -3.6 -3.1 -4.4 -4.9 84.8- 8.0 3.0---- 2.6-- 11---------
1991-02-08 -6.1 -3.8 -8.8-11.4 74.0- 7.7 3.7---- 5.6-- 6---------
1991-02-07 -7.7 -4.0-11.5-16.4 67.3- 6.0 3.3---- 0.0-- 7---------
1991-02-06-10.5 -8.0-13.3-16.9 63.5- 8.0 3.0---- 0.0-- 7---------
1991-02-05-12.3 -9.6-14.0-17.9 72.5- 4.3 3.0---- 0.0-- 8---------
1991-02-04 -7.9 -5.2-10.2-18.9 85.0- 7.0 2.7---- 1.1-- 5---------
1991-02-03 -7.6 -3.4-16.1-21.5 77.5- 7.3 1.7---- 0.4-- 3---------
1991-02-02-16.1 -8.5-21.4-24.8 94.5- 1.7 0.7---- 0.0-- 4---------
1991-02-01-18.8-11.6-24.3-28.2 74.5- 0.0 1.0---- 0.0-- 4---------
1991-01-31-17.4-11.6-21.3-25.9 68.3- 0.0 1.0---- 0.0-- 4---------
1991-01-30 -9.2 -0.4-14.8-22.4 68.0- 0.7 2.7---- 0.0-- 4---------
1991-01-29 0.2 1.1 -0.6 -6.4 88.0- 7.3 3.0---- 0.6-- 3---------
1991-01-28 -0.4 0.5 -0.8 -3.4 95.3- 8.0 1.3---- 1.8-- 1---------
1991-01-27 1.1 2.7 0.5 -0.5 96.8- 8.0 1.3---- 2.3------------
1991-01-26 2.2 3.0 0.3 -0.5 88.8- 8.0 2.3---- 0.7------------
1991-01-25 -1.9 0.3 -4.7 -9.6 88.5- 5.3 3.0---- 0.0------------
1991-01-24 1.0 3.5 -0.6 -4.4 89.0- 4.3 2.7---- 0.1------------
1991-01-23 0.4 1.5 -0.2 -2.5 84.8- 7.0 3.0---- 0.5------------
1991-01-22 -0.1 1.2 -2.9 -3.4 95.3- 7.7 1.0---- 0.2------------
1991-01-21 -5.8 -2.1-10.5-13.1 90.8- 4.0 1.3---- 0.0------------
1991-01-20 -6.2 -5.6 -7.0 -7.1 89.8- 8.0 1.0---- 0.0------------
1991-01-19 -7.3 -5.9 -9.2-14.4 91.8- 8.0 1.0---- 0.0------------
1991-01-18 -6.8 -0.2-12.7-15.4 86.5- 0.0 0.3---- 0.0------------
1991-01-17 -4.9 -4.4 -9.5-13.9 91.0- 8.0 1.0---- 0.0------------
1991-01-16 -5.3 -1.4 -8.8-12.9 76.8- 4.0 0.3---- 0.0------------
1991-01-15 -2.0 0.6 -7.9-12.4 85.8- 6.3 1.7---- 0.0-- 1---------
2184.4 ms

 

Źródłem pochodzenia danych jest Instytut Meteorologii i Gospodarki Wodnej – Państwowy Instytut Badawczy. Dane Instytutu Meteorologii i Gospodarki Wodnej – Państwowego Instytutu Badawczego zostały przetworzone.

Dane źródłowe można odnaleźć na stronie https://dane.imgw.pl